createdAt,value
2022-08-27T00:00:58.711Z,100095.73
2022-08-27T00:03:30.925Z,100095.45
2022-08-27T00:06:03.417Z,100093.48
2022-08-27T00:08:35.644Z,100093.46
2022-08-27T00:11:08.072Z,100095.36
2022-08-27T00:13:41.564Z,100089.29
2022-08-27T00:16:16.139Z,100092.87
2022-08-27T00:18:49.752Z,100094.61
2022-08-27T00:21:21.943Z,100093.63
2022-08-27T00:23:54.411Z,100094.54
2022-08-27T00:26:26.848Z,100096.98
2022-08-27T00:28:59.136Z,100100.55
2022-08-27T00:31:31.367Z,100104.59
2022-08-27T00:34:03.581Z,100107.05
2022-08-27T00:36:35.748Z,100107.92
2022-08-27T00:39:07.956Z,100108.32
2022-08-27T00:41:41.961Z,100107.41
2022-08-27T00:44:14.789Z,100108.63
2022-08-27T00:46:50.658Z,100109.23
2022-08-27T00:49:27.986Z,100112.08
2022-08-27T00:52:05.536Z,100111.43
2022-08-27T00:54:38.024Z,100110.17
2022-08-27T00:57:10.508Z,100108.52
2022-08-27T00:59:43.487Z,100107.65
2022-08-27T01:02:21.630Z,100110.16
2022-08-27T01:04:57.582Z,100107.09
2022-08-27T01:07:33.215Z,100108.64
2022-08-27T01:10:08.446Z,100112.85
2022-08-27T01:12:41.107Z,100116.44
2022-08-27T01:15:20.207Z,100117.27
2022-08-27T01:17:53.415Z,100116.31
2022-08-27T01:20:30.663Z,100112.03
2022-08-27T01:23:11.415Z,100111.75
2022-08-27T01:25:46.001Z,100116.85
2022-08-27T01:28:21.794Z,100119.29
2022-08-27T01:30:56.068Z,100120.26
2022-08-27T01:33:28.196Z,100116.92
2022-08-27T01:36:00.667Z,100115.75
2022-08-27T01:38:33.646Z,100113.96
2022-08-27T01:41:06.661Z,100118.90
2022-08-27T01:43:38.856Z,100120.70
2022-08-27T01:46:11.074Z,100120.48
2022-08-27T01:48:43.359Z,100120.82
2022-08-27T01:51:15.561Z,100121.15
2022-08-27T01:53:48.131Z,100121.46
2022-08-27T01:56:20.295Z,100120.21
2022-08-27T01:58:52.472Z,100121.59
2022-08-27T02:01:24.771Z,100122.20
2022-08-27T02:03:57.000Z,100118.41
2022-08-27T02:06:29.158Z,100121.63
2022-08-27T02:09:01.354Z,100118.20
2022-08-27T02:11:33.518Z,100117.27
2022-08-27T02:14:16.042Z,100119.16
2022-08-27T02:16:52.648Z,100113.04
2022-08-27T02:19:25.559Z,100113.15
2022-08-27T02:22:00.552Z,100110.14
2022-08-27T02:24:32.815Z,100116.77
2022-08-27T02:27:05.048Z,100115.20
2022-08-27T02:29:37.357Z,100111.23
2022-08-27T02:32:22.503Z,100107.41
2022-08-27T02:35:04.631Z,100105.54
2022-08-27T02:37:37.623Z,100102.59
2022-08-27T02:40:17.221Z,100104.52
2022-08-27T02:42:49.963Z,100107.92
2022-08-27T02:45:23.651Z,100106.91
2022-08-27T02:47:55.873Z,100110.92
2022-08-27T02:50:28.082Z,100112.19
2022-08-27T02:53:01.353Z,100107.39
2022-08-27T02:55:34.386Z,100106.48
2022-08-27T02:58:09.612Z,100109.66
2022-08-27T03:00:42.308Z,100109.13
2022-08-27T03:03:14.608Z,100105.45
2022-08-27T03:05:46.959Z,100108.39
2022-08-27T03:08:19.211Z,100103.91
2022-08-27T03:10:51.862Z,100106.42
2022-08-27T03:13:26.016Z,100108.30
2022-08-27T03:15:58.213Z,100113.81
2022-08-27T03:18:32.428Z,100109.08
2022-08-27T03:21:04.647Z,100111.44
2022-08-27T03:23:37.188Z,100115.05
2022-08-27T03:26:13.561Z,100117.11
2022-08-27T03:28:46.895Z,100114.48
2022-08-27T03:31:27.340Z,100117.02
2022-08-27T03:34:01.810Z,100121.45
2022-08-27T03:36:34.087Z,100120.02
2022-08-27T03:39:06.776Z,100119.51
2022-08-27T03:41:43.469Z,100122.86
2022-08-27T03:44:27.428Z,100125.41
2022-08-27T03:47:00.148Z,100124.57
2022-08-27T03:49:32.855Z,100127.66
2022-08-27T03:52:05.696Z,100133.59
2022-08-27T03:54:39.235Z,100137.56
2022-08-27T03:57:11.466Z,100140.66
2022-08-27T03:59:43.667Z,100141.69
2022-08-27T04:02:16.459Z,100135.02
2022-08-27T04:04:48.654Z,100132.88
2022-08-27T04:07:21.749Z,100135.69
2022-08-27T04:09:54.056Z,100133.91
2022-08-27T04:12:27.112Z,100134.63
2022-08-27T04:14:59.293Z,100135.17
2022-08-27T04:17:31.511Z,100133.59
2022-08-27T04:20:24.880Z,100128.89
2022-08-27T04:22:56.657Z,100133.52
2022-08-27T04:25:28.808Z,100134.21
2022-08-27T04:28:00.982Z,100137.71
2022-08-27T04:30:33.278Z,100141.70
2022-08-27T04:33:05.599Z,100134.42
2022-08-27T04:35:37.922Z,100141.52
2022-08-27T04:38:10.520Z,100140.98
2022-08-27T04:41:00.259Z,100139.48
2022-08-27T04:43:32.598Z,100138.74
2022-08-27T04:46:04.873Z,100141.96
2022-08-27T04:48:38.469Z,100139.24
2022-08-27T04:51:11.953Z,100143.35
2022-08-27T04:53:46.840Z,100146.71
2022-08-27T04:56:21.840Z,100150.61
2022-08-27T04:58:54.638Z,100149.42
2022-08-27T05:01:29.881Z,100150.39
2022-08-27T05:04:02.227Z,100152.90
2022-08-27T05:06:34.732Z,100158.47
2022-08-27T05:09:07.651Z,100158.05
2022-08-27T05:11:40.041Z,100163.48
2022-08-27T05:14:14.648Z,100165.48
2022-08-27T05:16:47.526Z,100166.38
2022-08-27T05:19:19.784Z,100170.30
2022-08-27T05:21:53.974Z,100169.62
2022-08-27T05:24:26.237Z,100175.02
2022-08-27T05:26:58.385Z,100173.27
2022-08-27T05:29:31.854Z,100178.20
2022-08-27T05:32:04.224Z,100178.44
2022-08-27T05:34:36.655Z,100174.13
2022-08-27T05:37:09.173Z,100181.27
2022-08-27T05:39:41.439Z,100177.09
2022-08-27T05:42:13.749Z,100176.27
2022-08-27T05:44:46.393Z,100177.93
2022-08-27T05:47:18.587Z,100172.41
2022-08-27T05:49:52.615Z,100172.09
2022-08-27T05:52:24.759Z,100173.39
2022-08-27T05:54:57.424Z,100172.95
2022-08-27T05:57:29.689Z,100174.97
2022-08-27T06:00:19.231Z,100172.66
2022-08-27T06:02:51.650Z,100169.88
2022-08-27T06:05:24.173Z,100170.80
2022-08-27T06:07:56.352Z,100167.59
2022-08-27T06:10:28.536Z,100169.18
2022-08-27T06:13:00.747Z,100170.82
2022-08-27T06:15:33.206Z,100171.35
2022-08-27T06:18:05.552Z,100170.50
2022-08-27T06:20:37.737Z,100169.61
2022-08-27T06:23:10.263Z,100175.55
2022-08-27T06:25:44.428Z,100174.34
2022-08-27T06:28:16.682Z,100173.08
2022-08-27T06:30:48.980Z,100176.10
2022-08-27T06:33:21.414Z,100177.17
2022-08-27T06:35:53.856Z,100182.39
2022-08-27T06:38:26.884Z,100181.42
2022-08-27T06:40:59.088Z,100182.16
2022-08-27T06:43:31.220Z,100182.68
2022-08-27T06:46:07.340Z,100184.19
2022-08-27T06:48:40.124Z,100187.80
2022-08-27T06:51:13.778Z,100187.71
2022-08-27T06:53:47.358Z,100191.50
2022-08-27T06:56:22.021Z,100190.02
2022-08-27T06:58:58.144Z,100197.55
2022-08-27T07:01:32.523Z,100199.88
2022-08-27T07:04:07.845Z,100201.36
2022-08-27T07:06:41.412Z,100207.55
2022-08-27T07:09:14.406Z,100208.52
2022-08-27T07:11:46.747Z,100211.52
2022-08-27T07:14:20.631Z,100213.08
2022-08-27T07:16:52.813Z,100215.85
2022-08-27T07:19:25.359Z,100224.46
2022-08-27T07:21:57.605Z,100226.42
2022-08-27T07:24:29.739Z,100218.26
2022-08-27T07:27:01.892Z,100220.12
2022-08-27T07:29:34.190Z,100222.02
2022-08-27T07:32:06.889Z,100222.77
2022-08-27T07:34:39.096Z,100221.97
2022-08-27T07:37:11.287Z,100221.08
2022-08-27T07:39:43.518Z,100221.79
2022-08-27T07:42:33.076Z,100223.78
2022-08-27T07:45:05.620Z,100222.87
2022-08-27T07:47:38.483Z,100218.95
2022-08-27T07:50:11.729Z,100220.46
2022-08-27T07:52:44.939Z,100219.52
2022-08-27T07:55:17.776Z,100217.71
2022-08-27T07:57:50.220Z,100219.73
2022-08-27T08:00:22.693Z,100214.58
2022-08-27T08:02:54.931Z,100214.70
2022-08-27T08:05:27.196Z,100214.61
2022-08-27T08:07:59.312Z,100215.91
2022-08-27T08:10:35.382Z,100215.88
2022-08-27T08:13:08.215Z,100213.44
2022-08-27T08:15:40.399Z,100217.20
2022-08-27T08:18:12.657Z,100216.45
2022-08-27T08:20:57.690Z,100214.12
2022-08-27T08:23:32.539Z,100218.30
2022-08-27T08:26:05.220Z,100218.35
2022-08-27T08:28:37.851Z,100215.39
2022-08-27T08:31:10.306Z,100217.17
2022-08-27T08:33:42.587Z,100210.33
2022-08-27T08:36:16.761Z,100209.52
2022-08-27T08:38:51.055Z,100208.55
2022-08-27T08:41:39.871Z,100209.98
2022-08-27T08:44:26.716Z,100207.84
2022-08-27T08:47:04.412Z,100209.30
2022-08-27T08:49:50.834Z,100208.56
2022-08-27T08:52:40.292Z,100205.84
2022-08-27T08:55:28.218Z,100203.29
2022-08-27T08:58:14.215Z,100206.10
2022-08-27T09:00:50.021Z,100208.50
2022-08-27T09:03:22.407Z,100208.17
2022-08-27T09:06:02.709Z,100206.73
2022-08-27T09:08:41.172Z,100204.59
2022-08-27T09:11:25.422Z,100203.41
2022-08-27T09:14:01.111Z,100202.32
2022-08-27T09:16:33.503Z,100201.68
2022-08-27T09:19:07.569Z,100202.68
2022-08-27T09:21:55.437Z,100206.37
2022-08-27T09:24:38.456Z,100206.63
2022-08-27T09:27:14.843Z,100202.92
2022-08-27T09:29:53.264Z,100201.41
2022-08-27T09:32:28.472Z,100203.25
2022-08-27T09:35:04.343Z,100204.05
2022-08-27T09:37:44.401Z,100205.48
2022-08-27T09:40:27.304Z,100204.01
2022-08-27T09:43:07.472Z,100200.95
2022-08-27T09:45:47.854Z,100195.94
2022-08-27T09:48:23.482Z,100195.46
2022-08-27T09:50:58.258Z,100196.36
2022-08-27T09:53:35.351Z,100195.58
2022-08-27T09:56:11.154Z,100199.13
2022-08-27T09:58:56.634Z,100192.01
2022-08-27T10:01:31.186Z,100192.27
2022-08-27T10:04:13.619Z,100193.89
2022-08-27T10:06:51.239Z,100194.30
2022-08-27T10:09:30.053Z,100193.79
2022-08-27T10:12:06.836Z,100190.10
2022-08-27T10:14:43.967Z,100186.98
2022-08-27T10:17:24.327Z,100189.11
2022-08-27T10:20:04.509Z,100187.24
2022-08-27T10:22:47.192Z,100190.81
2022-08-27T10:25:29.843Z,100192.16
2022-08-27T10:28:12.316Z,100197.55
2022-08-27T10:30:59.597Z,100191.68
2022-08-27T10:33:41.523Z,100194.80
2022-08-27T10:36:26.775Z,100194.10
2022-08-27T10:39:07.747Z,100194.48
2022-08-27T10:41:47.116Z,100198.95
2022-08-27T10:44:44.091Z,100194.96
2022-08-27T10:47:31.948Z,100194.03
2022-08-27T10:50:08.049Z,100190.77
2022-08-27T10:52:45.124Z,100190.36
2022-08-27T10:55:24.048Z,100191.96
2022-08-27T10:58:13.406Z,100189.31
2022-08-27T11:00:56.367Z,100192.02
2022-08-27T11:03:35.539Z,100192.02
2022-08-27T11:06:15.788Z,100186.31
2022-08-27T11:08:52.115Z,100185.59
2022-08-27T11:14:34.314Z,100183.27
2022-08-27T11:17:12.225Z,100184.91
2022-08-27T11:19:54.349Z,100181.58
2022-08-27T11:22:32.222Z,100176.19
2022-08-27T11:25:10.828Z,100173.98
2022-08-27T11:27:44.308Z,100173.37
2022-08-27T11:30:29.896Z,100170.14
2022-08-27T11:33:14.299Z,100175.49
2022-08-27T11:35:59.101Z,100176.86
2022-08-27T11:38:51.559Z,100180.03
2022-08-27T11:41:49.110Z,100172.56
2022-08-27T11:44:23.655Z,100168.98
2022-08-27T11:46:56.552Z,100167.16
2022-08-27T11:49:36.193Z,100165.06
2022-08-27T11:52:10.674Z,100162.89
2022-08-27T11:54:51.053Z,100163.70
2022-08-27T11:57:33.047Z,100166.34
2022-08-27T12:00:21.659Z,100164.02
2022-08-27T12:03:06.347Z,100161.77
2022-08-27T12:05:42.532Z,100156.23
2022-08-27T12:08:34.869Z,100157.40
2022-08-27T12:11:19.040Z,100151.48
2022-08-27T12:14:01.932Z,100149.60
2022-08-27T12:16:42.217Z,100151.55
2022-08-27T12:19:29.575Z,100149.06
2022-08-27T12:22:16.500Z,100147.77
2022-08-27T12:24:55.582Z,100141.21
2022-08-27T12:27:36.006Z,100136.17
2022-08-27T12:30:22.112Z,100136.25
2022-08-27T12:32:54.997Z,100140.11
2022-08-27T12:35:41.963Z,100138.35
2022-08-27T12:38:19.924Z,100137.41
2022-08-27T12:40:55.151Z,100135.35
2022-08-27T12:43:29.798Z,100135.98
2022-08-27T12:46:06.648Z,100136.79
2022-08-27T12:48:43.242Z,100137.31
2022-08-27T12:51:20.645Z,100136.30
2022-08-27T12:53:59.619Z,100138.17
2022-08-27T12:56:45.661Z,100139.60
2022-08-27T12:59:39.561Z,100139.59
2022-08-27T13:02:30.043Z,100140.46
2022-08-27T13:05:10.347Z,100138.09
2022-08-27T13:07:46.578Z,100138.59
2022-08-27T13:10:22.239Z,100137.77
2022-08-27T13:13:06.256Z,100136.32
2022-08-27T13:15:43.133Z,100134.27
2022-08-27T13:18:16.208Z,100138.00
2022-08-27T13:20:53.102Z,100139.95
2022-08-27T13:23:28.140Z,100138.39
2022-08-27T13:26:06.138Z,100139.77
2022-08-27T13:28:42.363Z,100136.71
2022-08-27T13:31:15.701Z,100139.10
2022-08-27T13:33:48.539Z,100135.88
2022-08-27T13:36:32.090Z,100137.26
2022-08-27T13:39:07.126Z,100131.57
2022-08-27T13:41:41.034Z,100132.51
2022-08-27T13:44:16.751Z,100131.56
2022-08-27T13:46:51.826Z,100133.28
2022-08-27T13:49:27.074Z,100128.78
2022-08-27T13:52:08.460Z,100132.27
2022-08-27T13:54:40.700Z,100128.13
2022-08-27T13:57:23.826Z,100129.11
2022-08-27T13:59:56.259Z,100125.09
2022-08-27T14:02:33.358Z,100126.09
2022-08-27T14:05:13.862Z,100125.51
2022-08-27T14:07:48.714Z,100121.95
2022-08-27T14:10:32.658Z,100117.78
2022-08-27T14:13:07.290Z,100118.75
2022-08-27T14:15:42.404Z,100118.23
2022-08-27T14:18:48.015Z,100116.87
2022-08-27T14:21:19.191Z,100115.89
2022-08-27T14:23:51.679Z,100125.70
2022-08-27T14:26:23.947Z,100122.26
2022-08-27T14:28:57.138Z,100123.45
2022-08-27T14:31:30.083Z,100125.80
2022-08-27T14:34:02.600Z,100129.01
2022-08-27T14:36:38.668Z,100130.53
2022-08-27T14:39:11.911Z,100131.99
2022-08-27T14:41:44.207Z,100134.15
2022-08-27T14:44:17.022Z,100137.55
2022-08-27T14:46:49.587Z,100139.40
2022-08-27T14:49:27.445Z,100141.42
2022-08-27T14:51:59.739Z,100139.82
2022-08-27T14:54:33.335Z,100146.23
2022-08-27T14:57:07.365Z,100146.70
2022-08-27T14:59:40.748Z,100146.67
2022-08-27T15:02:15.090Z,100148.55
2022-08-27T15:04:48.046Z,100150.80
2022-08-27T15:07:23.508Z,100148.65
2022-08-27T15:09:56.098Z,100150.10
2022-08-27T15:12:28.562Z,100151.88
2022-08-27T15:15:00.815Z,100149.81
2022-08-27T15:17:34.393Z,100149.29
2022-08-27T15:20:11.834Z,100145.80
2022-08-27T15:22:53.992Z,100146.52
2022-08-27T15:25:26.798Z,100145.59
2022-08-27T15:27:59.083Z,100147.44
2022-08-27T15:30:31.914Z,100145.36
2022-08-27T15:33:05.319Z,100146.91
2022-08-27T15:35:37.751Z,100145.56
2022-08-27T15:38:11.006Z,100146.52
2022-08-27T15:40:43.775Z,100138.80
2022-08-27T15:43:18.184Z,100136.80
2022-08-27T15:45:50.340Z,100139.38
2022-08-27T15:48:22.566Z,100135.46
2022-08-27T15:50:55.608Z,100133.70
2022-08-27T15:53:27.900Z,100131.21
2022-08-27T15:56:00.090Z,100134.05
2022-08-27T15:58:32.547Z,100136.29
2022-08-27T16:01:10.664Z,100135.95
2022-08-27T16:03:45.173Z,100134.13
2022-08-27T16:06:19.613Z,100135.48
2022-08-27T16:08:52.176Z,100137.20
2022-08-27T16:11:24.871Z,100140.23
2022-08-27T16:13:57.166Z,100144.20
2022-08-27T16:16:33.404Z,100152.96
2022-08-27T16:19:08.931Z,100144.80
2022-08-27T16:21:41.423Z,100144.82
2022-08-27T16:24:14.082Z,100142.27
2022-08-27T16:26:46.591Z,100146.10
2022-08-27T16:29:19.180Z,100146.27
2022-08-27T16:31:51.439Z,100147.14
2022-08-27T16:34:27.168Z,100145.54
2022-08-27T16:37:00.278Z,100146.36
2022-08-27T16:39:35.417Z,100152.34
2022-08-27T16:42:10.947Z,100148.98
2022-08-27T16:44:43.072Z,100147.60
2022-08-27T16:47:15.260Z,100147.35
2022-08-27T16:50:05.046Z,100148.45
2022-08-27T16:52:37.379Z,100149.80
2022-08-27T16:55:11.930Z,100153.02
2022-08-27T16:57:44.079Z,100157.73
2022-08-27T17:00:16.717Z,100162.06
2022-08-27T17:02:49.015Z,100160.29
2022-08-27T17:05:33.980Z,100166.20
2022-08-27T17:08:11.703Z,100165.95
2022-08-27T17:10:48.716Z,100167.69
2022-08-27T17:13:28.281Z,100171.95
2022-08-27T17:16:02.575Z,100171.18
2022-08-27T17:18:35.375Z,100173.68
2022-08-27T17:21:08.058Z,100176.35
2022-08-27T17:23:43.273Z,100175.83
2022-08-27T17:26:17.316Z,100177.48
2022-08-27T17:28:49.581Z,100181.41
2022-08-27T17:31:28.059Z,100181.60
2022-08-27T17:34:02.527Z,100178.79
2022-08-27T17:36:35.193Z,100182.08
2022-08-27T17:39:07.995Z,100183.09
2022-08-27T17:41:43.424Z,100184.96
2022-08-27T17:44:25.982Z,100192.08
2022-08-27T17:47:00.451Z,100195.96
2022-08-27T17:49:33.006Z,100197.51
2022-08-27T17:52:09.759Z,100202.35
2022-08-27T17:54:44.838Z,100204.05
2022-08-27T17:57:20.052Z,100206.67
2022-08-27T17:59:53.583Z,100209.40
2022-08-27T18:02:31.715Z,100214.16
2022-08-27T18:05:04.804Z,100213.92
2022-08-27T18:07:39.982Z,100215.95
2022-08-27T18:10:14.847Z,100219.54
2022-08-27T18:12:47.726Z,100222.05
2022-08-27T18:15:23.042Z,100224.65
2022-08-27T18:17:55.790Z,100228.88
2022-08-27T18:20:30.351Z,100231.23
2022-08-27T18:23:02.867Z,100234.13
2022-08-27T18:25:36.850Z,100233.55
2022-08-27T18:28:11.464Z,100234.69
2022-08-27T18:30:46.308Z,100238.67
2022-08-27T18:33:18.759Z,100238.06
2022-08-27T18:35:51.974Z,100241.55
2022-08-27T18:38:24.316Z,100242.60
2022-08-27T18:40:57.749Z,100245.48
2022-08-27T18:43:35.069Z,100244.09
2022-08-27T18:46:07.880Z,100245.06
2022-08-27T18:48:40.304Z,100248.65
2022-08-27T18:51:15.914Z,100248.20
2022-08-27T18:53:49.293Z,100246.98
2022-08-27T18:56:22.696Z,100250.56
2022-08-27T18:58:54.834Z,100250.45
2022-08-27T19:01:29.132Z,100253.12
2022-08-27T19:04:01.489Z,100259.52
2022-08-27T19:06:34.262Z,100260.02
2022-08-27T19:09:07.510Z,100261.02
2022-08-27T19:11:39.700Z,100265.33
2022-08-27T19:14:11.837Z,100266.22
2022-08-27T19:16:46.900Z,100268.98
2022-08-27T19:19:18.971Z,100273.34
2022-08-27T19:21:51.781Z,100279.42
2022-08-27T19:24:24.678Z,100282.80
2022-08-27T19:26:57.088Z,100286.50
2022-08-27T19:29:29.293Z,100291.45
2022-08-27T19:32:01.503Z,100293.40
2022-08-27T19:34:33.756Z,100298.26
2022-08-27T19:37:08.111Z,100303.10
2022-08-27T19:39:40.959Z,100305.22
2022-08-27T19:42:13.123Z,100308.79
2022-08-27T19:44:45.770Z,100312.41
2022-08-27T19:47:25.347Z,100311.83
2022-08-27T19:49:58.210Z,100308.30
2022-08-27T19:52:30.599Z,100310.45
2022-08-27T19:55:13.746Z,100308.64
2022-08-27T19:57:48.141Z,100310.50
2022-08-27T20:00:24.715Z,100312.46
2022-08-27T20:03:00.175Z,100315.45
2022-08-27T20:05:32.557Z,100317.26
2022-08-27T20:08:05.921Z,100317.57
2022-08-27T20:10:39.029Z,100319.96
2022-08-27T20:13:11.255Z,100324.74
2022-08-27T20:15:43.674Z,100325.73
2022-08-27T20:18:16.999Z,100324.21
2022-08-27T20:20:49.263Z,100323.72
2022-08-27T20:23:21.425Z,100323.80
2022-08-27T20:26:00.477Z,100322.87
2022-08-27T20:28:39.408Z,100319.98
2022-08-27T20:31:12.764Z,100323.30
2022-08-27T20:33:45.386Z,100319.77
2022-08-27T20:36:17.639Z,100322.92
2022-08-27T20:38:49.803Z,100321.52
2022-08-27T20:41:22.446Z,100326.08
2022-08-27T20:43:54.766Z,100323.23
2022-08-27T20:46:30.674Z,100323.98
2022-08-27T20:49:03.313Z,100326.79
2022-08-27T20:51:51.311Z,100325.94
2022-08-27T20:54:27.734Z,100324.70
2022-08-27T20:57:00.207Z,100322.23
2022-08-27T20:59:50.371Z,100318.33
2022-08-27T21:02:26.627Z,100319.84
2022-08-27T21:05:06.485Z,100318.62
2022-08-27T21:07:38.736Z,100318.81
2022-08-27T21:10:12.668Z,100314.26
2022-08-27T21:12:45.494Z,100316.65
2022-08-27T21:15:17.942Z,100321.97
2022-08-27T21:17:50.077Z,100316.10
2022-08-27T21:20:22.468Z,100322.88
2022-08-27T21:22:56.203Z,100323.84
2022-08-27T21:25:29.221Z,100319.89
2022-08-27T21:28:03.687Z,100318.24
2022-08-27T21:30:36.190Z,100317.54
2022-08-27T21:33:08.475Z,100322.04
2022-08-27T21:35:40.711Z,100324.98
2022-08-27T21:38:13.348Z,100328.76
2022-08-27T21:40:45.875Z,100329.09
2022-08-27T21:43:18.021Z,100329.61
2022-08-27T21:45:53.659Z,100335.57
2022-08-27T21:48:26.844Z,100333.58
2022-08-27T21:50:59.160Z,100337.83
2022-08-27T21:53:32.127Z,100342.31
2022-08-27T21:56:04.639Z,100335.09
2022-08-27T21:58:37.147Z,100334.42
2022-08-27T22:01:09.890Z,100334.89
2022-08-27T22:03:46.910Z,100335.50
2022-08-27T22:06:19.807Z,100335.43
2022-08-27T22:08:52.036Z,100336.38
2022-08-27T22:11:24.663Z,100334.01
2022-08-27T22:13:59.599Z,100331.85
2022-08-27T22:16:31.752Z,100330.45
2022-08-27T22:19:03.940Z,100330.35
2022-08-27T22:21:36.496Z,100328.33
2022-08-27T22:24:09.760Z,100327.48
2022-08-27T22:26:42.043Z,100324.89
2022-08-27T22:29:16.352Z,100318.69
2022-08-27T22:31:48.676Z,100316.90
2022-08-27T22:34:21.943Z,100314.85
2022-08-27T22:36:54.148Z,100309.02
2022-08-27T22:39:26.811Z,100302.26
2022-08-27T22:42:00.329Z,100304.59
2022-08-27T22:44:32.678Z,100302.63
2022-08-27T22:47:05.094Z,100299.80
2022-08-27T22:49:37.615Z,100298.64
2022-08-27T22:52:10.007Z,100301.80
2022-08-27T22:54:42.256Z,100296.19
2022-08-27T22:57:14.811Z,100297.58
2022-08-27T22:59:47.121Z,100296.38
2022-08-27T23:02:19.235Z,100295.86
2022-08-27T23:04:55.542Z,100301.36
2022-08-27T23:07:28.285Z,100304.22
2022-08-27T23:10:01.111Z,100305.38
2022-08-27T23:12:34.307Z,100308.46
2022-08-27T23:15:12.409Z,100308.73
2022-08-27T23:17:44.628Z,100307.25
2022-08-27T23:20:17.731Z,100308.91
2022-08-27T23:22:50.512Z,100305.01
2022-08-27T23:25:43.393Z,100305.60
2022-08-27T23:28:16.864Z,100302.70
2022-08-27T23:30:49.527Z,100301.95
2022-08-27T23:33:22.080Z,100305.10
2022-08-27T23:35:54.250Z,100304.40
2022-08-27T23:38:26.637Z,100301.77
2022-08-27T23:40:58.991Z,100301.57
2022-08-27T23:43:32.466Z,100302.55
2022-08-27T23:46:05.012Z,100305.53
2022-08-27T23:48:39.482Z,100302.65
2022-08-27T23:51:12.215Z,100300.47
2022-08-27T23:53:44.396Z,100301.29
2022-08-27T23:56:16.546Z,100294.10
2022-08-27T23:58:48.974Z,100298.39
